Lammy — PBRE — position and weather

sailwx.info

Track history (hours):
 
Tides and Currents Weather Stations Pressure Air Temp Water Temp Dewpoint Dewpoint Depression Visibility Wind Speed Wind Dir Waves Ship Positions

Lammy

Last reported at 2017-Mar-26 12:33 UTC. Time now 2017-Mar-26 12:51 UTC.
Position N 55°42' E 015°22'.

Length 95 m; draft 5.4 m.

Type: Cargo ship. MMSI: 245391000.

Date/timePositionNaut miles runAvg speedWind from/ knotsBaromVisibWave heightAir tempDewpointWater temp
2017-Mar-26 12:33N 55°42' E 015°22'1312.7
2017-Mar-26 11:33N 55°49' E 015°41'1312.7
2017-Mar-26 10:33N 55°55' E 016°00'1312.6
2017-Mar-26 09:33N 56°02' E 016°20'1312.7
2017-Mar-26 08:32N 56°08' E 016°40'  
2017-Mar-20 10:24N 56°27' E 017°01'1112.6
2017-Mar-20 09:33N 56°17' E 016°55'1313.2
2017-Mar-20 08:33N 56°05' E 016°46'1313.1
2017-Mar-20 07:33N 55°57' E 016°26'1313.0
2017-Mar-20 06:33N 55°51' E 016°06'1312.9
2017-Mar-20 05:33N 55°45' E 015°46'1313.2
2017-Mar-20 04:33N 55°38' E 015°25'1313.4
2017-Mar-20 03:33N 55°31' E 015°05'1313.3
2017-Mar-20 02:33N 55°25' E 014°44'1313.4
2017-Mar-20 01:33N 55°16' E 014°27'1212.5
2017-Mar-20 00:33N 55°11' E 014°07'3812.7
2017-Mar-19 21:33N 55°14' E 013°00'1312.6
2017-Mar-19 20:33N 55°18' E 012°39'1211.8
2017-Mar-19 19:33N 55°30' E 012°41'1110.7
2017-Mar-19 18:33N 55°40' E 012°41'1211.9
2017-Mar-19 17:33N 55°52' E 012°40'1111.4
2017-Mar-19 16:33N 56°04' E 012°38'5512.3
2017-Mar-19 12:03N 56°51' E 011°47'713.1
2017-Mar-19 11:29N 56°58' E 011°42'1212.9
2017-Mar-19 10:32N 57°10' E 011°34'1312.9
2017-Mar-19 09:33N 57°21' E 011°23'1313.0
2017-Mar-19 08:33N 57°32' E 011°10'1313.4
2017-Mar-19 07:33N 57°42' E 010°53'1312.8
2017-Mar-19 06:33N 57°46' E 010°31'7113.6
2017-Mar-19 01:21N 57°12' E 008°36'1113.5
2017-Mar-19 00:33N 57°05' E 008°19'33712.9
2017-Mar-17 22:28N 53°41' E 000°27'1212.9
2017-Mar-17 21:33N 53°33' E 000°13'1111.5
2017-Mar-17 20:33N 53°37' W 000°05'4 4.0
2017-Mar-17 19:32N 53°38' W 000°11'0 0.1
2017-Mar-17 18:32N 53°38' W 000°11'0 0.0
2017-Mar-17 17:32N 53°38' W 000°11'0 0.0
2017-Mar-17 16:32N 53°38' W 000°11'0 0.0
2017-Mar-17 15:20N 53°38' W 000°11'0 0.0
2017-Mar-17 14:26N 53°38' W 000°11'0 0.0
2017-Mar-17 13:32N 53°38' W 000°11'0 0.0
2017-Mar-17 12:20N 53°38' W 000°11'0 0.0
2017-Mar-17 11:23N 53°38' W 000°11'0 0.0
2017-Mar-17 10:23N 53°38' W 000°11'0 0.0
2017-Mar-17 08:32N 53°38' W 000°11'0 0.0
2017-Mar-17 07:32N 53°38' W 000°11'0 0.0
2017-Mar-17 06:29N 53°38' W 000°11'0 0.0
2017-Mar-17 05:32N 53°38' W 000°11'0 0.0
2017-Mar-17 04:26N 53°38' W 000°11'0 0.0
2017-Mar-17 03:23N 53°38' W 000°11'0 0.0
2017-Mar-17 02:32N 53°38' W 000°11'0 0.0
2017-Mar-17 01:29N 53°38' W 000°11'0 0.0
2017-Mar-17 00:29N 53°38' W 000°11'0 0.0
2017-Mar-16 23:20N 53°38' W 000°11'0 0.0
2017-Mar-16 22:29N 53°38' W 000°11'0 0.0
2017-Mar-16 21:23N 53°38' W 000°11'0 0.2
2017-Mar-16 20:33N 53°38' W 000°11'7 6.6
2017-Mar-16 19:33N 53°44' W 000°16'1 0.8
2017-Mar-16 18:30N 53°45' W 000°16'0 0.0
2017-Mar-16 17:21N 53°45' W 000°16'0 0.0
2017-Mar-16 16:27N 53°45' W 000°16'0 0.0
2017-Mar-16 15:22N 53°45' W 000°16'0 0.0
2017-Mar-16 14:34N 53°45' W 000°16'0 0.0
2017-Mar-16 13:31N 53°45' W 000°16'0 0.0
2017-Mar-16 12:33N 53°45' W 000°16'  
Track history (hours):
 
Tides and Currents Weather Stations Pressure Air Temp Water Temp Dewpoint Dewpoint Depression Visibility Wind Speed Wind Dir Waves Ship Positions

Lammy

Last reported at 2017-Mar-26 12:33 UTC. Time now 2017-Mar-26 12:51 UTC.
Position N 55°42' E 015°22'.

Length 95 m; draft 5.4 m.

Type: Cargo ship. MMSI: 245391000.

Date/timePositionNaut miles runAvg speedWind from/ knotsBaromVisibWave heightAir tempDewpointWater temp
2017-Mar-26 12:33N 55°42' E 015°22'1312.7
2017-Mar-26 11:33N 55°49' E 015°41'1312.7
2017-Mar-26 10:33N 55°55' E 016°00'1312.6
2017-Mar-26 09:33N 56°02' E 016°20'1312.7
2017-Mar-26 08:32N 56°08' E 016°40'  
2017-Mar-20 10:24N 56°27' E 017°01'1112.6
2017-Mar-20 09:33N 56°17' E 016°55'1313.2
2017-Mar-20 08:33N 56°05' E 016°46'1313.1
2017-Mar-20 07:33N 55°57' E 016°26'1313.0
2017-Mar-20 06:33N 55°51' E 016°06'1312.9
2017-Mar-20 05:33N 55°45' E 015°46'1313.2
2017-Mar-20 04:33N 55°38' E 015°25'1313.4
2017-Mar-20 03:33N 55°31' E 015°05'1313.3
2017-Mar-20 02:33N 55°25' E 014°44'1313.4
2017-Mar-20 01:33N 55°16' E 014°27'1212.5
2017-Mar-20 00:33N 55°11' E 014°07'3812.7
2017-Mar-19 21:33N 55°14' E 013°00'1312.6
2017-Mar-19 20:33N 55°18' E 012°39'1211.8
2017-Mar-19 19:33N 55°30' E 012°41'1110.7
2017-Mar-19 18:33N 55°40' E 012°41'1211.9
2017-Mar-19 17:33N 55°52' E 012°40'1111.4
2017-Mar-19 16:33N 56°04' E 012°38'5512.3
2017-Mar-19 12:03N 56°51' E 011°47'713.1
2017-Mar-19 11:29N 56°58' E 011°42'1212.9
2017-Mar-19 10:32N 57°10' E 011°34'1312.9
2017-Mar-19 09:33N 57°21' E 011°23'1313.0
2017-Mar-19 08:33N 57°32' E 011°10'1313.4
2017-Mar-19 07:33N 57°42' E 010°53'1312.8
2017-Mar-19 06:33N 57°46' E 010°31'7113.6
2017-Mar-19 01:21N 57°12' E 008°36'1113.5
2017-Mar-19 00:33N 57°05' E 008°19'33712.9
2017-Mar-17 22:28N 53°41' E 000°27'1212.9
2017-Mar-17 21:33N 53°33' E 000°13'1111.5
2017-Mar-17 20:33N 53°37' W 000°05'4 4.0
2017-Mar-17 19:32N 53°38' W 000°11'0 0.1
2017-Mar-17 18:32N 53°38' W 000°11'0 0.0
2017-Mar-17 17:32N 53°38' W 000°11'0 0.0
2017-Mar-17 16:32N 53°38' W 000°11'0 0.0
2017-Mar-17 15:20N 53°38' W 000°11'0 0.0
2017-Mar-17 14:26N 53°38' W 000°11'0 0.0
2017-Mar-17 13:32N 53°38' W 000°11'0 0.0
2017-Mar-17 12:20N 53°38' W 000°11'0 0.0
2017-Mar-17 11:23N 53°38' W 000°11'0 0.0
2017-Mar-17 10:23N 53°38' W 000°11'0 0.0
2017-Mar-17 08:32N 53°38' W 000°11'0 0.0
2017-Mar-17 07:32N 53°38' W 000°11'0 0.0
2017-Mar-17 06:29N 53°38' W 000°11'0 0.0
2017-Mar-17 05:32N 53°38' W 000°11'0 0.0
2017-Mar-17 04:26N 53°38' W 000°11'0 0.0
2017-Mar-17 03:23N 53°38' W 000°11'0 0.0
2017-Mar-17 02:32N 53°38' W 000°11'0 0.0
2017-Mar-17 01:29N 53°38' W 000°11'0 0.0
2017-Mar-17 00:29N 53°38' W 000°11'0 0.0
2017-Mar-16 23:20N 53°38' W 000°11'0 0.0
2017-Mar-16 22:29N 53°38' W 000°11'0 0.0
2017-Mar-16 21:23N 53°38' W 000°11'0 0.2
2017-Mar-16 20:33N 53°38' W 000°11'7 6.6
2017-Mar-16 19:33N 53°44' W 000°16'1 0.8
2017-Mar-16 18:30N 53°45' W 000°16'0 0.0
2017-Mar-16 17:21N 53°45' W 000°16'0 0.0
2017-Mar-16 16:27N 53°45' W 000°16'0 0.0
2017-Mar-16 15:22N 53°45' W 000°16'0 0.0
2017-Mar-16 14:34N 53°45' W 000°16'0 0.0
2017-Mar-16 13:31N 53°45' W 000°16'0 0.0
2017-Mar-16 12:33N 53°45' W 000°16'  

Dump ship's entire track history